Silver Cloud — C6MQ5 — position and weather

sailwx.info

Track history (hours):
 
Tides and Currents Weather Stations Pressure Air Temp Water Temp Dewpoint Dewpoint Depression Visibility Wind Speed Wind Dir Waves Ship Positions

Silver Cloud

Operator: V Ships Leisure SAM

Last reported at 2015-May-06 05:34 UTC. Time now 2015-May-06 06:27 UTC.
Position N 42°26' E 018°46'.

Length 155 m; draft 5.6 m.

Type: Passenger vessel. MMSI: 309027000.

Date/timePositionNaut miles runAvg speedWind from/ knotsBaromVisibWave heightAir tempDewpointWater temp
2015-May-06 05:34N 42°26' E 018°46'6 5.6
2015-May-06 04:34N 42°26' E 018°38'7 6.5
2015-May-06 03:33N 42°20' E 018°33'8 8.0
2015-May-06 02:33N 42°21' E 018°22'1110.4
2015-May-06 01:31N 42°24' E 018°08'1010.4
2015-May-06 00:33N 42°26' E 017°55'  
2015-May-01 04:27N 42°33' E 018°06'1111.6
2015-May-01 03:28N 42°23' E 017°59'8 8.4
2015-May-01 02:32N 42°15' E 017°59'1111.3
2015-May-01 01:33N 42°10' E 018°12'1111.0
2015-May-01 00:33N 42°14' E 018°26'1211.5
2015-Apr-30 23:30N 42°25' E 018°32'8 8.5
2015-Apr-30 22:34N 42°29' E 018°42'4 0.3
2015-Apr-30 05:33N 42°26' E 018°46'5 4.8
2015-Apr-30 04:33N 42°26' E 018°39'7 7.1
2015-Apr-30 03:34N 42°21' E 018°34'1615.6
2015-Apr-30 02:33N 42°06' E 018°38'1715.2
2015-Apr-30 01:27N 41°49' E 018°42'10214.8
2015-Apr-29 18:33N 40°11' E 019°17'1515.5
2015-Apr-29 17:33N 40°02' E 019°34'1515.3
2015-Apr-29 16:33N 39°54' E 019°51'8 7.4
2015-Apr-29 15:31N 39°52' E 020°01'0 0.0
2015-Apr-29 14:33N 39°52' E 020°01'0 0.0
2015-Apr-29 13:33N 39°52' E 020°01'0 0.0
2015-Apr-29 12:33N 39°52' E 020°01'0 0.0
2015-Apr-29 11:33N 39°52' E 020°01'0 0.0
2015-Apr-29 10:34N 39°52' E 020°01'0 0.0
2015-Apr-29 09:34N 39°52' E 020°00'0 0.0
2015-Apr-29 08:18N 39°52' E 020°00'0 0.0
2015-Apr-29 07:34N 39°52' E 020°00'0 0.0
2015-Apr-29 06:33N 39°52' E 020°00'7 2.9
2015-Apr-29 04:15N 39°52' E 019°52'710.6
2015-Apr-29 03:33N 39°51' E 019°42'1110.8
2015-Apr-29 02:34N 39°49' E 019°28'9 8.9
2015-Apr-29 01:33N 39°41' E 019°24'1211.1
2015-Apr-29 00:27N 39°29' E 019°30'1010.9
2015-Apr-28 23:33N 39°20' E 019°35'1111.1
2015-Apr-28 22:33N 39°10' E 019°40'236 9.7
2015-Apr-27 22:17N 36°29' E 023°18'811.0
2015-Apr-27 21:33N 36°37' E 023°17'44 2.4
2015-Apr-27 03:07N 37°18' E 022°60'1414.2
2015-Apr-27 02:07N 37°12' E 023°15'1015.9
2015-Apr-27 01:30N 37°13' E 023°27'4815.4
2015-Apr-26 22:22N 37°44' E 024°14'1415.9
2015-Apr-26 21:29N 37°52' E 024°29'  
Track history (hours):
 
Tides and Currents Weather Stations Pressure Air Temp Water Temp Dewpoint Dewpoint Depression Visibility Wind Speed Wind Dir Waves Ship Positions

Silver Cloud

Operator: V Ships Leisure SAM

Last reported at 2015-May-06 05:34 UTC. Time now 2015-May-06 06:27 UTC.
Position N 42°26' E 018°46'.

Length 155 m; draft 5.6 m.

Type: Passenger vessel. MMSI: 309027000.

Date/timePositionNaut miles runAvg speedWind from/ knotsBaromVisibWave heightAir tempDewpointWater temp
2015-May-06 05:34N 42°26' E 018°46'6 5.6
2015-May-06 04:34N 42°26' E 018°38'7 6.5
2015-May-06 03:33N 42°20' E 018°33'8 8.0
2015-May-06 02:33N 42°21' E 018°22'1110.4
2015-May-06 01:31N 42°24' E 018°08'1010.4
2015-May-06 00:33N 42°26' E 017°55'  
2015-May-01 04:27N 42°33' E 018°06'1111.6
2015-May-01 03:28N 42°23' E 017°59'8 8.4
2015-May-01 02:32N 42°15' E 017°59'1111.3
2015-May-01 01:33N 42°10' E 018°12'1111.0
2015-May-01 00:33N 42°14' E 018°26'1211.5
2015-Apr-30 23:30N 42°25' E 018°32'8 8.5
2015-Apr-30 22:34N 42°29' E 018°42'4 0.3
2015-Apr-30 05:33N 42°26' E 018°46'5 4.8
2015-Apr-30 04:33N 42°26' E 018°39'7 7.1
2015-Apr-30 03:34N 42°21' E 018°34'1615.6
2015-Apr-30 02:33N 42°06' E 018°38'1715.2
2015-Apr-30 01:27N 41°49' E 018°42'10214.8
2015-Apr-29 18:33N 40°11' E 019°17'1515.5
2015-Apr-29 17:33N 40°02' E 019°34'1515.3
2015-Apr-29 16:33N 39°54' E 019°51'8 7.4
2015-Apr-29 15:31N 39°52' E 020°01'0 0.0
2015-Apr-29 14:33N 39°52' E 020°01'0 0.0
2015-Apr-29 13:33N 39°52' E 020°01'0 0.0
2015-Apr-29 12:33N 39°52' E 020°01'0 0.0
2015-Apr-29 11:33N 39°52' E 020°01'0 0.0
2015-Apr-29 10:34N 39°52' E 020°01'0 0.0
2015-Apr-29 09:34N 39°52' E 020°00'0 0.0
2015-Apr-29 08:18N 39°52' E 020°00'0 0.0
2015-Apr-29 07:34N 39°52' E 020°00'0 0.0
2015-Apr-29 06:33N 39°52' E 020°00'7 2.9
2015-Apr-29 04:15N 39°52' E 019°52'710.6
2015-Apr-29 03:33N 39°51' E 019°42'1110.8
2015-Apr-29 02:34N 39°49' E 019°28'9 8.9
2015-Apr-29 01:33N 39°41' E 019°24'1211.1
2015-Apr-29 00:27N 39°29' E 019°30'1010.9
2015-Apr-28 23:33N 39°20' E 019°35'1111.1
2015-Apr-28 22:33N 39°10' E 019°40'236 9.7
2015-Apr-27 22:17N 36°29' E 023°18'811.0
2015-Apr-27 21:33N 36°37' E 023°17'44 2.4
2015-Apr-27 03:07N 37°18' E 022°60'1414.2
2015-Apr-27 02:07N 37°12' E 023°15'1015.9
2015-Apr-27 01:30N 37°13' E 023°27'4815.4
2015-Apr-26 22:22N 37°44' E 024°14'1415.9
2015-Apr-26 21:29N 37°52' E 024°29'  

Dump ship's entire track history